Time,TemperatureF,DewpointF,PressureIn,WindDirection,WindDirectionDegrees,WindSpeedMPH,WindSpeedGustMPH,Humidity,HourlyPrecipIn,Conditions,Clouds,dailyrainin,SoftwareType,DateUTC
2013-05-05 00:04:00,50.6,41.2,29.98,SW,225,1.1,2.9,70,0.00,,,0.00,WUHU216HW,2013-05-04 23:04:00,
2013-05-05 00:09:00,50.4,41.4,29.98,WSW,248,1.8,2.5,71,0.00,,,0.00,WUHU216HW,2013-05-04 23:09:00,
2013-05-05 00:14:00,50.2,41.2,29.98,NW,315,0.7,2.0,71,0.00,,,0.00,WUHU216HW,2013-05-04 23:14:00,
2013-05-05 00:19:00,50.2,41.2,29.98,SW,225,0.2,2.0,71,0.00,,,0.00,WUHU216HW,2013-05-04 23:19:00,
2013-05-05 00:24:00,50.2,41.2,29.98,SE,135,1.1,1.8,71,0.00,,,0.00,WUHU216HW,2013-05-04 23:24:00,
2013-05-05 00:29:00,50.2,41.2,29.98,NW,315,0.4,1.8,71,0.00,,,0.00,WUHU216HW,2013-05-04 23:29:00,
2013-05-05 00:34:00,50.2,41.2,29.99,WSW,248,0.2,1.6,71,0.00,,,0.00,WUHU216HW,2013-05-04 23:34:00,
2013-05-05 00:39:00,50.2,41.2,29.98,West,270,0.7,1.3,71,0.00,,,0.00,WUHU216HW,2013-05-04 23:39:00,
2013-05-05 00:44:00,50.2,41.2,29.98,WSW,248,0.0,0.7,71,0.00,,,0.00,WUHU216HW,2013-05-04 23:44:00,
2013-05-05 00:49:00,50.2,41.2,29.99,WSW,248,0.4,0.7,71,0.00,,,0.00,WUHU216HW,2013-05-04 23:49:00,
2013-05-05 00:54:00,50.0,41.4,29.98,WSW,248,0.2,1.1,72,0.00,,,0.00,WUHU216HW,2013-05-04 23:54:00,
2013-05-05 00:59:00,50.0,41.4,29.99,WSW,248,0.7,1.1,72,0.00,,,0.00,WUHU216HW,2013-05-04 23:59:00,
2013-05-05 01:04:00,50.0,41.4,29.99,SW,225,0.4,0.9,72,0.00,,,0.00,WUHU216HW,2013-05-05 00:04:00,
2013-05-05 01:09:00,50.0,41.4,29.99,SSW,203,0.0,0.7,72,0.00,,,0.00,WUHU216HW,2013-05-05 00:09:00,
2013-05-05 01:14:00,50.0,41.1,29.99,SSW,203,0.2,0.9,71,0.00,,,0.00,WUHU216HW,2013-05-05 00:14:00,
2013-05-05 01:19:00,50.0,41.4,29.99,SSE,158,1.1,1.3,72,0.00,,,0.00,WUHU216HW,2013-05-05 00:19:00,
2013-05-05 01:24:00,49.9,41.2,29.99,SSE,158,0.0,1.3,72,0.00,,,0.00,WUHU216HW,2013-05-05 00:24:00,
2013-05-05 01:29:00,49.9,41.2,29.99,South,180,0.0,1.1,72,0.00,,,0.00,WUHU216HW,2013-05-05 00:29:00,
2013-05-05 01:34:00,49.7,41.3,29.99,SSE,158,0.7,0.9,73,0.00,,,0.00,WUHU216HW,2013-05-05 00:34:00,
2013-05-05 01:39:00,49.7,41.1,29.99,SSE,158,0.2,0.9,72,0.00,,,0.00,WUHU216HW,2013-05-05 00:39:00,
2013-05-05 01:44:00,49.7,41.1,29.99,SSE,158,0.0,0.7,72,0.00,,,0.00,WUHU216HW,2013-05-05 00:44:00,
2013-05-05 01:49:00,49.7,41.1,29.99,SSE,158,0.2,0.4,72,0.00,,,0.00,WUHU216HW,2013-05-05 00:49:00,
2013-05-05 01:54:00,49.5,40.9,29.99,SSE,158,0.0,0.4,72,0.00,,,0.00,WUHU216HW,2013-05-05 00:54:00,
2013-05-05 01:59:00,49.5,40.9,29.99,SSE,158,0.0,0.4,72,0.00,,,0.00,WUHU216HW,2013-05-05 00:59:00,
2013-05-05 02:04:00,49.5,40.9,29.99,SSE,158,0.0,0.4,72,0.00,,,0.00,WUHU216HW,2013-05-05 01:04:00,
2013-05-05 02:09:00,49.3,40.7,29.99,SSE,158,0.0,0.0,72,0.00,,,0.00,WUHU216HW,2013-05-05 01:09:00,
2013-05-05 02:14:00,49.3,40.7,29.99,SSE,158,0.2,0.2,72,0.00,,,0.00,WUHU216HW,2013-05-05 01:14:00,
2013-05-05 02:19:00,49.1,40.5,29.99,SSE,158,0.0,0.7,72,0.00,,,0.00,WUHU216HW,2013-05-05 01:19:00,
2013-05-05 02:24:00,49.0,40.3,29.98,SSE,158,0.0,0.7,72,0.00,,,0.00,WUHU216HW,2013-05-05 01:24:00,
2013-05-05 02:29:00,48.8,40.4,29.99,SSE,158,0.2,0.4,73,0.00,,,0.00,WUHU216HW,2013-05-05 01:29:00,
2013-05-05 02:34:00,48.6,40.2,29.99,SSE,158,0.0,0.2,73,0.00,,,0.00,WUHU216HW,2013-05-05 01:34:00,
2013-05-05 02:39:00,48.4,40.1,29.99,SSE,158,0.0,0.2,73,0.00,,,0.00,WUHU216HW,2013-05-05 01:39:00,
2013-05-05 02:44:00,48.1,40.1,29.98,SSE,158,0.0,0.0,74,0.00,,,0.00,WUHU216HW,2013-05-05 01:44:00,
2013-05-05 02:49:00,47.9,40.0,29.99,SSE,158,0.0,0.0,74,0.00,,,0.00,WUHU216HW,2013-05-05 01:49:00,
2013-05-05 02:54:00,47.9,40.0,29.98,SSE,158,0.0,0.0,74,0.00,,,0.00,WUHU216HW,2013-05-05 01:54:00,
2013-05-05 02:59:00,47.7,39.8,29.99,SSE,158,0.0,0.0,74,0.00,,,0.00,WUHU216HW,2013-05-05 01:59:00,
2013-05-05 03:04:00,47.3,40.2,29.99,SE,135,0.0,0.7,76,0.00,,,0.00,WUHU216HW,2013-05-05 02:04:00,
2013-05-05 03:09:00,47.2,39.6,29.99,SE,135,0.0,0.7,75,0.00,,,0.00,WUHU216HW,2013-05-05 02:09:00,
2013-05-05 03:14:00,47.0,39.4,29.99,SW,225,0.2,0.7,75,0.00,,,0.00,WUHU216HW,2013-05-05 02:14:00,
2013-05-05 03:19:00,46.8,39.3,29.99,SSE,158,0.2,2.0,75,0.00,,,0.00,WUHU216HW,2013-05-05 02:19:00,
2013-05-05 03:24:00,46.6,39.5,29.99,South,180,0.2,2.0,76,0.00,,,0.00,WUHU216HW,2013-05-05 02:24:00,
2013-05-05 03:29:00,46.4,39.7,29.99,South,180,0.2,1.8,77,0.00,,,0.00,WUHU216HW,2013-05-05 02:29:00,
2013-05-05 03:34:00,46.4,39.7,29.99,SW,225,0.0,0.9,77,0.00,,,0.00,WUHU216HW,2013-05-05 02:34:00,
2013-05-05 03:39:00,46.3,39.5,29.99,SSW,203,0.0,0.7,77,0.00,,,0.00,WUHU216HW,2013-05-05 02:39:00,
2013-05-05 03:44:00,46.1,39.6,29.99,SSW,203,0.0,0.4,78,0.00,,,0.00,WUHU216HW,2013-05-05 02:44:00,
2013-05-05 03:49:00,45.9,39.2,29.99,SSW,203,0.0,0.4,77,0.00,,,0.00,WUHU216HW,2013-05-05 02:49:00,
2013-05-05 03:54:00,45.7,39.0,29.99,SSW,203,0.0,0.0,77,0.00,,,0.00,WUHU216HW,2013-05-05 02:54:00,
2013-05-05 03:59:00,45.7,39.0,29.99,SSW,203,0.0,0.0,77,0.00,,,0.00,WUHU216HW,2013-05-05 02:59:00,
2013-05-05 04:04:00,45.5,38.8,29.99,SSW,203,0.0,0.0,77,0.00,,,0.00,WUHU216HW,2013-05-05 03:04:00,
2013-05-05 04:09:00,45.4,38.6,29.99,SSW,203,0.0,0.0,77,0.00,,,0.00,WUHU216HW,2013-05-05 03:09:00,
2013-05-05 04:14:00,45.2,38.7,29.99,SSW,203,0.0,0.0,78,0.00,,,0.00,WUHU216HW,2013-05-05 03:14:00,
2013-05-05 04:19:00,45.0,38.5,29.99,SSW,203,0.0,0.0,78,0.00,,,0.00,WUHU216HW,2013-05-05 03:19:00,
2013-05-05 04:24:00,45.0,38.5,29.99,SSW,203,0.0,0.0,78,0.00,,,0.00,WUHU216HW,2013-05-05 03:24:00,
2013-05-05 04:29:00,44.8,38.1,29.99,SSW,203,0.0,0.4,77,0.00,,,0.00,WUHU216HW,2013-05-05 03:29:00,
2013-05-05 04:34:00,44.6,38.2,29.99,SSW,203,0.4,0.4,78,0.00,,,0.00,WUHU216HW,2013-05-05 03:34:00,
2013-05-05 04:39:00,44.6,38.2,29.99,SSW,203,0.0,0.4,78,0.00,,,0.00,WUHU216HW,2013-05-05 03:39:00,
2013-05-05 04:44:00,44.5,38.0,29.99,SSW,203,0.0,0.2,78,0.00,,,0.00,WUHU216HW,2013-05-05 03:44:00,
2013-05-05 04:49:00,44.3,38.2,29.99,SSW,203,0.0,0.2,79,0.00,,,0.00,WUHU216HW,2013-05-05 03:49:00,
2013-05-05 04:54:00,44.3,38.2,29.99,SSW,203,0.0,0.2,79,0.00,,,0.00,WUHU216HW,2013-05-05 03:54:00,
2013-05-05 04:59:00,44.1,38.0,30.00,SSW,203,0.0,0.0,79,0.00,,,0.00,WUHU216HW,2013-05-05 03:59:00,
2013-05-05 05:01:00,44.1,38.3,30.00,SSW,203,0.0,0.0,80,0.00,,,0.00,WUHU216HW,2013-05-05 04:01:00,
2013-05-05 05:06:00,43.9,38.2,30.00,SSW,203,0.0,0.0,80,0.00,,,0.00,WUHU216HW,2013-05-05 04:06:00,
2013-05-05 05:11:00,43.7,37.6,30.00,SSW,203,0.0,0.0,79,0.00,,,0.00,WUHU216HW,2013-05-05 04:11:00,
2013-05-05 05:16:00,43.7,38.0,30.00,SSW,203,0.0,0.0,80,0.00,,,0.00,WUHU216HW,2013-05-05 04:16:00,
2013-05-05 05:21:00,43.6,37.8,30.00,SSW,203,0.0,0.0,80,0.00,,,0.00,WUHU216HW,2013-05-05 04:21:00,
2013-05-05 05:26:00,43.6,37.8,30.00,SSW,203,0.0,0.4,80,0.00,,,0.00,WUHU216HW,2013-05-05 04:26:00,
2013-05-05 05:31:00,43.6,37.8,30.01,SSW,203,0.0,0.4,80,0.00,,,0.00,WUHU216HW,2013-05-05 04:31:00,
2013-05-05 05:36:00,43.7,38.3,30.01,SSW,203,0.0,0.4,81,0.00,,,0.00,WUHU216HW,2013-05-05 04:36:00,
2013-05-05 05:41:00,43.9,38.4,30.01,SSW,203,0.2,0.2,81,0.00,,,0.00,WUHU216HW,2013-05-05 04:41:00,
2013-05-05 05:46:00,44.3,39.2,30.01,SSW,203,0.4,0.4,82,0.00,,,0.00,WUHU216HW,2013-05-05 04:46:00,
2013-05-05 05:51:00,44.3,39.4,30.01,SSW,203,0.0,0.4,83,0.00,,,0.00,WUHU216HW,2013-05-05 04:51:00,
2013-05-05 05:56:00,44.6,39.8,30.01,SSW,203,0.0,0.2,83,0.00,,,0.00,WUHU216HW,2013-05-05 04:56:00,
2013-05-05 06:01:00,44.8,40.0,30.01,SSW,203,0.0,0.0,83,0.00,,,0.00,WUHU216HW,2013-05-05 05:01:00,
2013-05-05 06:06:00,45.0,40.1,30.01,SSW,203,0.0,0.0,83,0.00,,,0.00,WUHU216HW,2013-05-05 05:06:00,
2013-05-05 06:11:00,45.2,40.3,30.01,SSW,203,0.0,0.0,83,0.00,,,0.00,WUHU216HW,2013-05-05 05:11:00,
2013-05-05 06:16:00,45.4,40.5,30.01,SSW,203,0.0,0.2,83,0.00,,,0.00,WUHU216HW,2013-05-05 05:16:00,
2013-05-05 06:21:00,45.4,40.2,30.01,SSW,203,0.0,0.2,82,0.00,,,0.00,WUHU216HW,2013-05-05 05:21:00,
2013-05-05 06:26:00,45.7,40.6,30.01,SSW,203,0.0,0.0,82,0.00,,,0.00,WUHU216HW,2013-05-05 05:26:00,
2013-05-05 06:31:00,45.9,41.0,30.01,SSW,203,0.0,0.2,83,0.00,,,0.00,WUHU216HW,2013-05-05 05:31:00,
2013-05-05 06:36:00,46.3,41.4,30.01,SSW,203,0.0,0.4,83,0.00,,,0.00,WUHU216HW,2013-05-05 05:36:00,
2013-05-05 06:41:00,46.6,41.8,30.01,SSW,203,0.0,0.4,83,0.00,,,0.00,WUHU216HW,2013-05-05 05:41:00,
2013-05-05 06:46:00,47.0,42.1,30.01,SSW,203,0.0,0.0,83,0.00,,,0.00,WUHU216HW,2013-05-05 05:46:00,
2013-05-05 06:51:00,47.3,42.8,30.02,SSW,203,0.0,0.2,84,0.00,,,0.00,WUHU216HW,2013-05-05 05:51:00,
2013-05-05 06:56:00,48.1,43.7,30.02,SSW,203,1.3,1.3,85,0.00,,,0.00,WUHU216HW,2013-05-05 05:56:00,
2013-05-05 07:01:00,48.4,44.1,30.02,SW,225,0.4,1.6,85,0.00,,,0.00,WUHU216HW,2013-05-05 06:01:00,
2013-05-05 07:06:00,48.6,43.9,30.02,SSW,203,0.0,1.6,84,0.00,,,0.00,WUHU216HW,2013-05-05 06:06:00,
2013-05-05 07:11:00,49.1,44.5,30.02,SSW,203,0.4,1.1,84,0.00,,,0.00,WUHU216HW,2013-05-05 06:11:00,
2013-05-05 07:16:00,49.3,44.7,30.02,SSE,158,0.2,1.3,84,0.00,,,0.00,WUHU216HW,2013-05-05 06:16:00,
2013-05-05 07:21:00,49.5,44.5,30.02,South,180,0.0,1.3,83,0.00,,,0.00,WUHU216HW,2013-05-05 06:21:00,
2013-05-05 07:26:00,49.7,45.0,30.02,SSW,203,1.8,1.8,84,0.00,,,0.00,WUHU216HW,2013-05-05 06:26:00,
2013-05-05 07:31:00,50.0,45.4,30.02,SSW,203,0.0,1.8,84,0.00,,,0.00,WUHU216HW,2013-05-05 06:31:00,
2013-05-05 07:36:00,50.2,45.6,30.02,SSW,203,0.2,1.8,84,0.00,,,0.00,WUHU216HW,2013-05-05 06:36:00,
2013-05-05 07:41:00,50.4,45.7,30.02,SSE,158,0.2,1.1,84,0.00,,,0.00,WUHU216HW,2013-05-05 06:41:00,
2013-05-05 07:46:00,50.8,46.1,30.02,SE,135,0.4,0.9,84,0.00,,,0.00,WUHU216HW,2013-05-05 06:46:00,
2013-05-05 07:51:00,51.1,46.5,30.02,East,90,0.4,0.9,84,0.00,,,0.00,WUHU216HW,2013-05-05 06:51:00,
2013-05-05 07:56:00,51.5,46.4,30.02,South,180,0.4,2.5,83,0.00,,,0.00,WUHU216HW,2013-05-05 06:56:00,
2013-05-05 08:01:00,51.8,46.8,30.02,SSW,203,0.0,2.5,83,0.00,,,0.00,WUHU216HW,2013-05-05 07:01:00,
2013-05-05 08:06:00,52.6,47.3,30.02,WSW,248,0.7,2.0,82,0.00,,,0.00,WUHU216HW,2013-05-05 07:06:00,
2013-05-05 08:11:00,52.9,47.0,30.02,WNW,293,0.4,2.0,80,0.00,,,0.00,WUHU216HW,2013-05-05 07:11:00,
2013-05-05 08:16:00,52.9,47.0,30.02,WNW,293,0.4,1.3,80,0.00,,,0.00,WUHU216HW,2013-05-05 07:16:00,
2013-05-05 08:21:00,53.3,47.0,30.02,WNW,293,2.5,2.5,79,0.00,,,0.00,WUHU216HW,2013-05-05 07:21:00,
2013-05-05 08:26:00,53.6,47.3,30.02,WSW,248,2.7,2.7,79,0.00,,,0.00,WUHU216HW,2013-05-05 07:26:00,
2013-05-05 08:31:00,54.2,47.5,30.02,WNW,293,1.1,2.7,78,0.00,,,0.00,WUHU216HW,2013-05-05 07:31:00,
2013-05-05 08:36:00,54.4,47.6,30.02,SSW,203,0.4,2.7,78,0.00,,,0.00,WUHU216HW,2013-05-05 07:36:00,
2013-05-05 08:41:00,54.5,48.2,30.02,WSW,248,0.7,2.7,79,0.00,,,0.00,WUHU216HW,2013-05-05 07:41:00,
2013-05-05 08:46:00,55.1,48.3,30.02,SW,225,0.2,2.7,78,0.00,,,0.00,WUHU216HW,2013-05-05 07:46:00,
2013-05-05 08:51:00,55.3,48.2,30.02,NNW,338,0.4,2.5,77,0.00,,,0.00,WUHU216HW,2013-05-05 07:51:00,
2013-05-05 08:56:00,55.3,47.8,30.02,WSW,248,1.3,3.4,76,0.00,,,0.00,WUHU216HW,2013-05-05 07:56:00,
2013-05-05 09:01:00,55.3,47.8,30.02,West,270,0.4,3.4,76,0.00,,,0.00,WUHU216HW,2013-05-05 08:01:00,
2013-05-05 09:06:00,55.4,48.0,30.02,WSW,248,0.4,1.8,76,0.00,,,0.00,WUHU216HW,2013-05-05 08:06:00,
2013-05-05 09:11:00,56.0,48.5,30.02,South,180,2.5,4.3,76,0.00,,,0.00,WUHU216HW,2013-05-05 08:11:00,
2013-05-05 09:16:00,56.3,48.5,30.03,SSW,203,1.6,4.3,75,0.00,,,0.00,WUHU216HW,2013-05-05 08:16:00,
2013-05-05 09:21:00,56.2,48.3,30.03,SSW,203,0.2,3.1,75,0.00,,,0.00,WUHU216HW,2013-05-05 08:21:00,
2013-05-05 09:26:00,56.5,48.6,30.03,West,270,1.1,3.1,75,0.00,,,0.00,WUHU216HW,2013-05-05 08:26:00,
2013-05-05 09:31:00,56.7,48.1,30.03,ESE,113,0.9,1.8,73,0.00,,,0.00,WUHU216HW,2013-05-05 08:31:00,
2013-05-05 09:36:00,57.2,48.6,30.03,West,270,1.1,3.1,73,0.00,,,0.00,WUHU216HW,2013-05-05 08:36:00,
2013-05-05 09:41:00,58.0,49.3,30.03,WNW,293,0.7,3.1,73,0.00,,,0.00,WUHU216HW,2013-05-05 08:41:00,
2013-05-05 09:46:00,58.3,49.0,30.03,South,180,2.2,2.7,71,0.00,,,0.00,WUHU216HW,2013-05-05 08:46:00,
2013-05-05 09:51:00,58.0,48.2,30.04,South,180,2.0,3.6,70,0.00,,,0.00,WUHU216HW,2013-05-05 08:51:00,
2013-05-05 09:56:00,58.0,48.6,30.04,WSW,248,0.4,4.3,71,0.00,,,0.00,WUHU216HW,2013-05-05 08:56:00,
2013-05-05 10:01:00,58.3,48.2,30.04,West,270,1.1,4.3,69,0.00,,,0.00,WUHU216HW,2013-05-05 09:01:00,
2013-05-05 10:06:00,58.3,48.2,30.04,West,270,0.9,1.8,69,0.00,,,0.00,WUHU216HW,2013-05-05 09:06:00,
2013-05-05 10:11:00,58.5,49.1,30.04,SSW,203,1.1,2.9,71,0.00,,,0.00,WUHU216HW,2013-05-05 09:11:00,
2013-05-05 10:16:00,58.9,49.1,30.04,SSE,158,1.3,2.9,70,0.00,,,0.00,WUHU216HW,2013-05-05 09:16:00,
2013-05-05 10:21:00,59.2,49.5,30.04,WSW,248,0.7,3.8,70,0.00,,,0.00,WUHU216HW,2013-05-05 09:21:00,
2013-05-05 10:26:00,59.4,49.7,30.04,South,180,0.7,3.8,70,0.00,,,0.00,WUHU216HW,2013-05-05 09:26:00,
2013-05-05 10:31:00,59.8,49.6,30.04,SW,225,0.2,3.4,69,0.00,,,0.00,WUHU216HW,2013-05-05 09:31:00,
2013-05-05 10:36:00,60.1,49.6,30.04,South,180,2.5,2.5,68,0.00,,,0.00,WUHU216HW,2013-05-05 09:36:00,
2013-05-05 10:41:00,60.8,50.7,30.04,SW,225,1.8,3.4,69,0.00,,,0.00,WUHU216HW,2013-05-05 09:41:00,
2013-05-05 10:46:00,60.8,49.1,30.04,NW,315,1.1,3.4,65,0.00,,,0.00,WUHU216HW,2013-05-05 09:46:00,
2013-05-05 10:51:00,60.5,49.2,30.04,West,270,0.4,2.7,66,0.00,,,0.00,WUHU216HW,2013-05-05 09:51:00,
2013-05-05 10:56:00,60.7,49.3,30.04,West,270,0.4,2.7,66,0.00,,,0.00,WUHU216HW,2013-05-05 09:56:00,
2013-05-05 11:01:00,61.2,50.2,30.04,WSW,248,0.7,3.1,67,0.00,,,0.00,WUHU216HW,2013-05-05 10:01:00,
2013-05-05 11:06:00,61.6,50.1,30.04,SW,225,0.9,3.1,66,0.00,,,0.00,WUHU216HW,2013-05-05 10:06:00,
2013-05-05 11:11:00,61.6,49.7,30.04,South,180,2.2,3.8,65,0.00,,,0.00,WUHU216HW,2013-05-05 10:11:00,
2013-05-05 11:16:00,61.4,49.5,30.04,SSW,203,1.8,4.3,65,0.00,,,0.00,WUHU216HW,2013-05-05 10:16:00,
2013-05-05 11:21:00,61.4,50.4,30.04,West,270,1.3,4.3,67,0.00,,,0.00,WUHU216HW,2013-05-05 10:21:00,
2013-05-05 11:26:00,61.2,49.4,30.04,WNW,293,1.6,3.6,65,0.00,,,0.00,WUHU216HW,2013-05-05 10:26:00,
2013-05-05 11:31:00,61.4,49.5,30.04,SSW,203,1.1,2.2,65,0.00,,,0.00,WUHU216HW,2013-05-05 10:31:00,
2013-05-05 11:36:00,61.9,50.9,30.04,SSW,203,2.7,3.8,67,0.00,,,0.00,WUHU216HW,2013-05-05 10:36:00,
2013-05-05 11:41:00,62.5,50.1,30.04,SW,225,0.4,3.8,64,0.00,,,0.00,WUHU216HW,2013-05-05 10:41:00,
2013-05-05 11:46:00,63.0,51.0,30.04,NW,315,1.1,3.8,65,0.00,,,0.00,WUHU216HW,2013-05-05 10:46:00,
2013-05-05 11:51:00,63.5,51.1,30.04,South,180,4.0,5.4,64,0.00,,,0.00,WUHU216HW,2013-05-05 10:51:00,
2013-05-05 11:56:00,63.7,50.1,30.04,WSW,248,1.8,5.4,61,0.00,,,0.00,WUHU216HW,2013-05-05 10:56:00,
2013-05-05 12:01:00,64.1,51.2,30.04,West,270,1.1,4.5,63,0.00,,,0.00,WUHU216HW,2013-05-05 11:01:00,
2013-05-05 12:06:00,64.3,50.5,30.04,WSW,248,0.9,6.0,61,0.00,,,0.00,WUHU216HW,2013-05-05 11:06:00,
2013-05-05 12:11:00,64.1,50.3,30.04,WSW,248,1.1,6.0,61,0.00,,,0.00,WUHU216HW,2013-05-05 11:11:00,
2013-05-05 12:16:00,63.5,50.2,30.04,WSW,248,0.2,3.1,62,0.00,,,0.00,WUHU216HW,2013-05-05 11:16:00,
2013-05-05 12:21:00,63.4,50.5,30.04,WSW,248,0.7,3.1,63,0.00,,,0.00,WUHU216HW,2013-05-05 11:21:00,
2013-05-05 12:26:00,63.4,50.5,30.04,WSW,248,2.2,4.0,63,0.00,,,0.00,WUHU216HW,2013-05-05 11:26:00,
2013-05-05 12:31:00,63.7,50.4,30.04,WSW,248,4.7,4.7,62,0.00,,,0.00,WUHU216HW,2013-05-05 11:31:00,
2013-05-05 12:36:00,64.1,51.2,30.04,NW,315,1.1,4.7,63,0.00,,,0.00,WUHU216HW,2013-05-05 11:36:00,
2013-05-05 12:41:00,64.4,51.5,30.04,SSW,203,4.0,4.7,63,0.00,,,0.00,WUHU216HW,2013-05-05 11:41:00,
2013-05-05 12:46:00,65.2,50.9,30.04,West,270,1.1,5.6,60,0.00,,,0.00,WUHU216HW,2013-05-05 11:46:00,
2013-05-05 12:51:00,65.7,50.5,30.03,SSW,203,2.7,5.6,58,0.00,,,0.00,WUHU216HW,2013-05-05 11:51:00,
2013-05-05 12:56:00,65.5,50.9,30.03,SE,135,6.0,6.0,59,0.00,,,0.00,WUHU216HW,2013-05-05 11:56:00,
2013-05-05 13:01:00,65.9,50.7,30.03,West,270,1.8,6.0,58,0.00,,,0.00,WUHU216HW,2013-05-05 12:01:00,
2013-05-05 13:06:00,65.2,50.0,30.04,West,270,1.3,4.5,58,0.00,,,0.00,WUHU216HW,2013-05-05 12:06:00,
2013-05-05 13:11:00,65.3,50.1,30.03,WSW,248,0.9,4.0,58,0.00,,,0.00,WUHU216HW,2013-05-05 12:11:00,
2013-05-05 13:16:00,65.9,50.7,30.03,South,180,0.9,4.7,58,0.00,,,0.00,WUHU216HW,2013-05-05 12:16:00,
2013-05-05 13:21:00,66.4,50.2,30.04,NW,315,0.9,5.1,56,0.00,,,0.00,WUHU216HW,2013-05-05 12:21:00,
2013-05-05 13:26:00,66.1,49.4,30.03,WNW,293,1.1,5.1,55,0.00,,,0.00,WUHU216HW,2013-05-05 12:26:00,
2013-05-05 13:31:00,65.3,50.1,30.03,South,180,4.0,4.0,58,0.00,,,0.00,WUHU216HW,2013-05-05 12:31:00,
2013-05-05 13:36:00,65.3,49.7,30.03,West,270,2.5,4.0,57,0.00,,,0.00,WUHU216HW,2013-05-05 12:36:00,
2013-05-05 13:41:00,65.9,49.2,30.03,WSW,248,0.9,4.0,55,0.00,,,0.00,WUHU216HW,2013-05-05 12:41:00,
2013-05-05 13:46:00,65.5,49.9,30.02,West,270,0.4,4.0,57,0.00,,,0.00,WUHU216HW,2013-05-05 12:46:00,
2013-05-05 13:51:00,65.5,51.3,30.02,SSW,203,2.5,4.0,60,0.00,,,0.00,WUHU216HW,2013-05-05 12:51:00,
2013-05-05 13:56:00,65.7,50.5,30.02,South,180,4.3,4.3,58,0.00,,,0.00,WUHU216HW,2013-05-05 12:56:00,
2013-05-05 14:01:00,66.2,51.6,30.02,West,270,0.4,6.5,59,0.00,,,0.00,WUHU216HW,2013-05-05 13:01:00,
2013-05-05 14:06:00,66.8,51.0,30.02,South,180,2.5,6.5,57,0.00,,,0.00,WUHU216HW,2013-05-05 13:06:00,
2013-05-05 14:11:00,67.0,51.2,30.02,SSW,203,2.5,3.6,57,0.00,,,0.00,WUHU216HW,2013-05-05 13:11:00,
2013-05-05 14:16:00,67.3,52.0,30.02,ESE,113,1.8,3.6,58,0.00,,,0.00,WUHU216HW,2013-05-05 13:16:00,
2013-05-05 14:21:00,67.5,51.2,30.02,SSW,203,0.2,3.4,56,0.00,,,0.00,WUHU216HW,2013-05-05 13:21:00,
2013-05-05 14:26:00,67.3,51.0,30.02,South,180,0.7,3.4,56,0.00,,,0.00,WUHU216HW,2013-05-05 13:26:00,
2013-05-05 14:31:00,67.7,50.4,30.02,SSW,203,1.6,2.7,54,0.00,,,0.00,WUHU216HW,2013-05-05 13:31:00,
2013-05-05 14:36:00,67.7,50.9,30.02,SW,225,2.0,2.9,55,0.00,,,0.00,WUHU216HW,2013-05-05 13:36:00,
2013-05-05 14:41:00,67.7,51.4,30.01,NNE,23,1.1,3.4,56,0.00,,,0.00,WUHU216HW,2013-05-05 13:41:00,
2013-05-05 14:46:00,67.7,50.4,30.01,WNW,293,0.9,3.6,54,0.00,,,0.00,WUHU216HW,2013-05-05 13:46:00,
2013-05-05 14:51:00,67.7,51.4,30.01,WSW,248,0.9,3.6,56,0.00,,,0.00,WUHU216HW,2013-05-05 13:51:00,
2013-05-05 14:56:00,67.7,51.4,30.01,SW,225,0.4,3.4,56,0.00,,,0.00,WUHU216HW,2013-05-05 13:56:00,
2013-05-05 15:01:00,67.7,50.9,30.01,SSE,158,0.4,3.4,55,0.00,,,0.00,WUHU216HW,2013-05-05 14:01:00,
2013-05-05 15:06:00,68.0,51.7,30.01,SSW,203,2.0,2.5,56,0.00,,,0.00,WUHU216HW,2013-05-05 14:06:00,
2013-05-05 15:11:00,68.0,51.2,30.01,East,90,1.1,4.0,55,0.00,,,0.00,WUHU216HW,2013-05-05 14:11:00,
2013-05-05 15:16:00,68.0,51.7,30.01,SW,225,0.2,4.0,56,0.00,,,0.00,WUHU216HW,2013-05-05 14:16:00,
2013-05-05 15:21:00,68.0,50.8,30.01,West,270,1.6,2.9,54,0.00,,,0.00,WUHU216HW,2013-05-05 14:21:00,
2013-05-05 15:26:00,67.9,51.0,30.01,SW,225,1.1,2.9,55,0.00,,,0.00,WUHU216HW,2013-05-05 14:26:00,
2013-05-05 15:31:00,68.0,51.2,30.01,SW,225,0.9,4.0,55,0.00,,,0.00,WUHU216HW,2013-05-05 14:31:00,
2013-05-05 15:36:00,67.9,50.6,30.01,West,270,0.4,4.0,54,0.00,,,0.00,WUHU216HW,2013-05-05 14:36:00,
2013-05-05 15:41:00,68.0,50.8,30.00,South,180,0.4,3.1,54,0.00,,,0.00,WUHU216HW,2013-05-05 14:41:00,
2013-05-05 15:46:00,68.0,50.8,30.01,West,270,1.3,3.1,54,0.00,,,0.00,WUHU216HW,2013-05-05 14:46:00,
2013-05-05 15:51:00,67.7,50.4,30.01,South,180,1.6,2.9,54,0.00,,,0.00,WUHU216HW,2013-05-05 14:51:00,
2013-05-05 15:56:00,67.9,50.6,30.00,WSW,248,0.7,2.7,54,0.00,,,0.00,WUHU216HW,2013-05-05 14:56:00,
2013-05-05 16:01:00,67.7,50.0,30.00,NW,315,0.0,2.5,53,0.00,,,0.00,WUHU216HW,2013-05-05 15:01:00,
2013-05-05 16:06:00,67.5,50.2,30.00,West,270,0.2,1.6,54,0.00,,,0.00,WUHU216HW,2013-05-05 15:06:00,
2013-05-05 16:11:00,67.9,50.6,30.00,NW,315,0.4,1.1,54,0.00,,,0.00,WUHU216HW,2013-05-05 15:11:00,
2013-05-05 16:16:00,68.0,50.8,30.00,NW,315,0.7,4.0,54,0.00,,,0.00,WUHU216HW,2013-05-05 15:16:00,
2013-05-05 16:21:00,68.4,50.6,30.00,SW,225,0.2,4.0,53,0.00,,,0.00,WUHU216HW,2013-05-05 15:21:00,
2013-05-05 16:26:00,68.6,51.2,30.00,SE,135,0.4,1.3,54,0.00,,,0.00,WUHU216HW,2013-05-05 15:26:00,
2013-05-05 16:31:00,68.4,51.0,30.00,WSW,248,0.4,2.0,54,0.00,,,0.00,WUHU216HW,2013-05-05 15:31:00,
2013-05-05 16:36:00,68.4,51.0,30.00,WSW,248,1.3,2.0,54,0.00,,,0.00,WUHU216HW,2013-05-05 15:36:00,
2013-05-05 16:41:00,68.0,49.8,30.00,WNW,293,1.6,2.5,52,0.00,,,0.00,WUHU216HW,2013-05-05 15:41:00,
2013-05-05 16:46:00,67.7,50.0,30.00,SW,225,0.4,2.5,53,0.00,,,0.00,WUHU216HW,2013-05-05 15:46:00,
2013-05-05 16:51:00,67.9,51.0,30.00,SW,225,0.4,2.5,55,0.00,,,0.00,WUHU216HW,2013-05-05 15:51:00,
2013-05-05 16:56:00,68.0,50.8,30.00,South,180,2.0,2.7,54,0.00,,,0.00,WUHU216HW,2013-05-05 15:56:00,
2013-05-05 17:01:00,68.4,50.0,29.99,WNW,293,1.1,2.7,52,0.00,,,0.00,WUHU216HW,2013-05-05 16:01:00,
2013-05-05 17:06:00,68.2,50.9,29.99,South,180,1.8,2.5,54,0.00,,,0.00,WUHU216HW,2013-05-05 16:06:00,
2013-05-05 17:11:00,68.6,50.8,29.99,WNW,293,1.1,2.5,53,0.00,,,0.00,WUHU216HW,2013-05-05 16:11:00,
2013-05-05 17:16:00,68.8,51.0,29.99,SW,225,0.7,4.0,53,0.00,,,0.00,WUHU216HW,2013-05-05 16:16:00,
2013-05-05 17:21:00,68.8,51.4,29.99,South,180,4.0,4.3,54,0.00,,,0.00,WUHU216HW,2013-05-05 16:21:00,
2013-05-05 17:26:00,69.1,51.2,29.99,South,180,1.6,4.3,53,0.00,,,0.00,WUHU216HW,2013-05-05 16:26:00,
2013-05-05 17:31:00,69.3,51.4,29.99,West,270,2.0,4.3,53,0.00,,,0.00,WUHU216HW,2013-05-05 16:31:00,
2013-05-05 17:36:00,69.1,50.8,29.99,West,270,2.7,3.6,52,0.00,,,0.00,WUHU216HW,2013-05-05 16:36:00,
2013-05-05 17:41:00,68.9,50.6,29.99,SSW,203,0.7,4.7,52,0.00,,,0.00,WUHU216HW,2013-05-05 16:41:00,
2013-05-05 17:46:00,68.9,51.1,29.99,SW,225,0.7,4.7,53,0.00,,,0.00,WUHU216HW,2013-05-05 16:46:00,
2013-05-05 17:51:00,68.6,49.8,29.99,South,180,0.9,1.3,51,0.00,,,0.00,WUHU216HW,2013-05-05 16:51:00,
2013-05-05 17:56:00,68.2,50.4,29.99,WNW,293,0.9,2.0,53,0.00,,,0.00,WUHU216HW,2013-05-05 16:56:00,
2013-05-05 18:01:00,68.0,50.8,29.99,SSW,203,0.2,2.0,54,0.00,,,0.00,WUHU216HW,2013-05-05 17:01:00,
2013-05-05 18:06:00,67.9,50.0,29.99,WSW,248,1.1,1.8,53,0.00,,,0.00,WUHU216HW,2013-05-05 17:06:00,
2013-05-05 18:11:00,67.7,50.0,29.99,West,270,0.9,1.8,53,0.00,,,0.00,WUHU216HW,2013-05-05 17:11:00,
2013-05-05 18:16:00,67.5,50.2,29.99,SSW,203,0.4,1.8,54,0.00,,,0.00,WUHU216HW,2013-05-05 17:16:00,
2013-05-05 18:21:00,67.3,50.0,29.99,West,270,0.9,2.9,54,0.00,,,0.00,WUHU216HW,2013-05-05 17:21:00,
2013-05-05 18:26:00,67.1,49.4,29.99,West,270,0.2,2.9,53,0.00,,,0.00,WUHU216HW,2013-05-05 17:26:00,
2013-05-05 18:31:00,66.8,49.6,29.99,South,180,0.4,2.7,54,0.00,,,0.00,WUHU216HW,2013-05-05 17:31:00,
2013-05-05 18:36:00,66.8,50.0,29.99,South,180,0.4,3.1,55,0.00,,,0.00,WUHU216HW,2013-05-05 17:36:00,
2013-05-05 18:41:00,66.8,50.0,29.99,WSW,248,0.7,3.1,55,0.00,,,0.00,WUHU216HW,2013-05-05 17:41:00,
2013-05-05 18:46:00,66.6,50.0,29.99,SSW,203,1.3,2.0,55,0.00,,,0.00,WUHU216HW,2013-05-05 17:46:00,
2013-05-05 18:51:00,66.6,50.0,29.99,South,180,0.2,2.0,55,0.00,,,0.00,WUHU216HW,2013-05-05 17:51:00,
2013-05-05 18:56:00,66.6,50.0,29.99,SSW,203,0.2,3.6,55,0.00,,,0.00,WUHU216HW,2013-05-05 17:56:00,
2013-05-05 19:01:00,66.4,49.8,29.99,WSW,248,0.0,3.6,55,0.00,,,0.00,WUHU216HW,2013-05-05 18:01:00,
2013-05-05 19:06:00,66.2,49.6,29.99,SW,225,0.2,1.3,55,0.00,,,0.00,WUHU216HW,2013-05-05 18:06:00,
2013-05-05 19:11:00,66.1,49.9,29.99,West,270,0.0,2.2,56,0.00,,,0.00,WUHU216HW,2013-05-05 18:11:00,
2013-05-05 19:16:00,66.1,50.4,29.99,SSW,203,0.0,2.2,57,0.00,,,0.00,WUHU216HW,2013-05-05 18:16:00,
2013-05-05 19:21:00,65.9,50.2,29.99,SW,225,0.0,2.0,57,0.00,,,0.00,WUHU216HW,2013-05-05 18:21:00,
2013-05-05 19:26:00,65.7,50.1,29.99,SSW,203,0.0,0.9,57,0.00,,,0.00,WUHU216HW,2013-05-05 18:26:00,
2013-05-05 19:31:00,65.5,49.9,30.00,SSW,203,0.2,1.1,57,0.00,,,0.00,WUHU216HW,2013-05-05 18:31:00,
2013-05-05 19:36:00,65.3,49.7,29.99,South,180,1.1,1.6,57,0.00,,,0.00,WUHU216HW,2013-05-05 18:36:00,
2013-05-05 19:41:00,65.2,50.0,30.00,South,180,0.0,1.6,58,0.00,,,0.00,WUHU216HW,2013-05-05 18:41:00,
2013-05-05 19:46:00,65.2,50.0,29.99,WSW,248,0.4,1.1,58,0.00,,,0.00,WUHU216HW,2013-05-05 18:46:00,
2013-05-05 19:51:00,65.0,49.8,29.99,SSW,203,0.0,0.9,58,0.00,,,0.00,WUHU216HW,2013-05-05 18:51:00,
2013-05-05 19:56:00,64.8,49.6,29.99,SSW,203,0.0,0.9,58,0.00,,,0.00,WUHU216HW,2013-05-05 18:56:00,
2013-05-05 20:01:00,64.8,50.1,30.00,SSW,203,0.0,0.4,59,0.00,,,0.00,WUHU216HW,2013-05-05 19:01:00,
2013-05-05 20:06:00,64.6,50.0,30.00,SSW,203,0.0,1.1,59,0.00,,,0.00,WUHU216HW,2013-05-05 19:06:00,
2013-05-05 20:11:00,64.4,49.2,30.00,WNW,293,0.4,1.3,58,0.00,,,0.00,WUHU216HW,2013-05-05 19:11:00,
2013-05-05 20:16:00,64.3,49.6,30.00,SW,225,0.0,1.3,59,0.00,,,0.00,WUHU216HW,2013-05-05 19:16:00,
2013-05-05 20:21:00,64.1,49.4,30.00,SSW,203,0.4,0.9,59,0.00,,,0.00,WUHU216HW,2013-05-05 19:21:00,
2013-05-05 20:26:00,63.9,49.8,30.00,SSW,203,0.0,0.4,60,0.00,,,0.00,WUHU216HW,2013-05-05 19:26:00,
2013-05-05 20:31:00,63.9,49.8,30.00,South,180,0.0,0.7,60,0.00,,,0.00,WUHU216HW,2013-05-05 19:31:00,
2013-05-05 20:36:00,63.7,49.6,30.00,SSW,203,0.2,1.1,60,0.00,,,0.00,WUHU216HW,2013-05-05 19:36:00,
2013-05-05 20:41:00,63.4,49.7,30.00,SSW,203,1.1,1.8,61,0.00,,,0.00,WUHU216HW,2013-05-05 19:41:00,
2013-05-05 20:46:00,63.2,49.5,30.00,SSE,158,0.2,1.8,61,0.00,,,0.00,WUHU216HW,2013-05-05 19:46:00,
2013-05-05 20:51:00,63.0,49.3,30.00,ENE,68,0.2,1.6,61,0.00,,,0.00,WUHU216HW,2013-05-05 19:51:00,
2013-05-05 20:56:00,62.8,49.1,30.00,East,90,0.0,1.1,61,0.00,,,0.00,WUHU216HW,2013-05-05 19:56:00,
2013-05-05 21:01:00,62.6,49.4,30.00,SSW,203,0.9,1.1,62,0.00,,,0.00,WUHU216HW,2013-05-05 20:01:00,
2013-05-05 21:06:00,62.3,49.2,30.00,SSW,203,0.2,1.1,62,0.00,,,0.00,WUHU216HW,2013-05-05 20:06:00,
2013-05-05 21:11:00,62.1,49.0,30.00,SW,225,0.0,0.9,62,0.00,,,0.00,WUHU216HW,2013-05-05 20:11:00,
2013-05-05 21:16:00,61.9,48.8,30.00,SW,225,1.1,1.1,62,0.00,,,0.00,WUHU216HW,2013-05-05 20:16:00,
2013-05-05 21:21:00,61.7,48.6,30.00,SW,225,0.9,1.1,62,0.00,,,0.00,WUHU216HW,2013-05-05 20:21:00,
2013-05-05 21:26:00,61.4,48.7,30.01,SW,225,0.0,1.1,63,0.00,,,0.00,WUHU216HW,2013-05-05 20:26:00,
2013-05-05 21:31:00,61.2,49.0,30.01,SW,225,0.0,0.9,64,0.00,,,0.00,WUHU216HW,2013-05-05 20:31:00,
2013-05-05 21:36:00,60.8,48.6,30.01,SW,225,0.4,0.4,64,0.00,,,0.00,WUHU216HW,2013-05-05 20:36:00,
2013-05-05 21:41:00,60.5,48.7,30.01,SW,225,0.4,0.4,65,0.00,,,0.00,WUHU216HW,2013-05-05 20:41:00,
2013-05-05 21:46:00,60.3,48.5,30.01,SW,225,0.0,0.4,65,0.00,,,0.00,WUHU216HW,2013-05-05 20:46:00,
2013-05-05 21:51:00,60.1,48.3,30.01,SW,225,0.0,0.4,65,0.00,,,0.00,WUHU216HW,2013-05-05 20:51:00,
2013-05-05 21:56:00,59.9,48.2,30.01,SW,225,0.2,0.4,65,0.00,,,0.00,WUHU216HW,2013-05-05 20:56:00,
2013-05-05 22:01:00,59.8,48.0,30.01,SW,225,0.0,0.4,65,0.00,,,0.00,WUHU216HW,2013-05-05 21:01:00,
2013-05-05 22:06:00,59.6,48.3,30.01,ESE,113,0.4,2.7,66,0.00,,,0.00,WUHU216HW,2013-05-05 21:06:00,
2013-05-05 22:11:00,59.4,48.9,30.01,SSW,203,2.5,3.8,68,0.00,,,0.00,WUHU216HW,2013-05-05 21:11:00,
2013-05-05 22:16:00,59.2,48.2,30.01,SSW,203,0.2,3.8,67,0.00,,,0.00,WUHU216HW,2013-05-05 21:16:00,
2013-05-05 22:21:00,59.0,48.1,30.01,SSW,203,0.0,2.5,67,0.00,,,0.00,WUHU216HW,2013-05-05 21:21:00,
2013-05-05 22:26:00,59.0,48.1,30.01,West,270,0.0,1.8,67,0.00,,,0.00,WUHU216HW,2013-05-05 21:26:00,
2013-05-05 22:31:00,59.0,48.5,30.01,West,270,0.0,0.4,68,0.00,,,0.00,WUHU216HW,2013-05-05 21:31:00,
2013-05-05 22:36:00,58.9,48.3,30.01,West,270,0.0,0.2,68,0.00,,,0.00,WUHU216HW,2013-05-05 21:36:00,
2013-05-05 22:41:00,58.9,48.3,30.01,West,270,0.0,0.0,68,0.00,,,0.00,WUHU216HW,2013-05-05 21:41:00,
2013-05-05 22:46:00,58.7,48.2,30.01,West,270,0.0,0.2,68,0.00,,,0.00,WUHU216HW,2013-05-05 21:46:00,
2013-05-05 22:51:00,58.7,48.5,30.01,West,270,0.0,0.4,69,0.00,,,0.00,WUHU216HW,2013-05-05 21:51:00,
2013-05-05 22:56:00,58.7,48.5,30.01,West,270,0.0,0.4,69,0.00,,,0.00,WUHU216HW,2013-05-05 21:56:00,
2013-05-05 23:01:00,58.5,48.3,30.02,WSW,248,0.0,0.4,69,0.00,,,0.00,WUHU216HW,2013-05-05 22:01:00,
2013-05-05 23:06:00,58.3,48.6,30.01,WSW,248,0.0,0.4,70,0.00,,,0.00,WUHU216HW,2013-05-05 22:06:00,
2013-05-05 23:11:00,58.1,48.4,30.02,WSW,248,0.4,0.7,70,0.00,,,0.00,WUHU216HW,2013-05-05 22:11:00,
2013-05-05 23:16:00,58.0,49.0,30.02,WSW,248,0.2,0.7,72,0.00,,,0.00,WUHU216HW,2013-05-05 22:16:00,
2013-05-05 23:21:00,58.0,48.6,30.02,South,180,0.2,0.4,71,0.00,,,0.00,WUHU216HW,2013-05-05 22:21:00,
2013-05-05 23:26:00,57.8,48.8,30.02,SSW,203,0.0,1.1,72,0.00,,,0.00,WUHU216HW,2013-05-05 22:26:00,
2013-05-05 23:31:00,57.6,48.6,30.02,SSW,203,0.7,1.1,72,0.00,,,0.00,WUHU216HW,2013-05-05 22:31:00,
2013-05-05 23:36:00,57.4,48.4,30.02,SSW,203,0.4,0.7,72,0.00,,,0.00,WUHU216HW,2013-05-05 22:36:00,
2013-05-05 23:41:00,57.2,47.9,30.02,SSW,203,0.0,0.7,71,0.00,,,0.00,WUHU216HW,2013-05-05 22:41:00,
2013-05-05 23:46:00,57.1,47.7,30.02,SSW,203,0.0,0.4,71,0.00,,,0.00,WUHU216HW,2013-05-05 22:46:00,
2013-05-05 23:51:00,56.9,47.9,30.02,SSW,203,0.0,0.2,72,0.00,,,0.00,WUHU216HW,2013-05-05 22:51:00,
2013-05-05 23:56:00,56.7,48.1,30.02,SSE,158,0.4,0.4,73,0.00,,,0.00,WUHU216HW,2013-05-05 22:56:00,